Tiempo atmosférico en la estación meteorológica de Amieva, Panizales, Asturias (360 m.)

Fecha
DESCASC
Temp. máxima en grados centígrados (hora)
DESCASC
Temp. mínima en grados centígrados (hora)
DESCASC
Temp. media en grados centígrados
DESCASC
Racha de viento máxima en m/sg (hora)
DESCASC
Velocidad máxima media en intervalos de 10 minutos(hora)
DESCASC
Precipitaciones diarias en mm
DESCASC
Precipitaciones de 00:00 a 06:00 en mm
DESCASC
Precipitaciones de 06:00 a 12:00 en mm
DESCASC
Precipitaciones de 12:00 a 18:00 en mm
DESCASC
Precipitaciones de 18:00 a 24:00 en mm
DESCASC
23-11-2017 19.8 (12:20) 15.5 (08:50) 17.6 15.83 (02:30) 8.33 (02:30) 0 0 0 0 0
22-11-2017 22.7 (13:50) 16.4 (00:30) 19.6 19.44 (20:30) 7.5 (06:30) 0 0 0 0 0
21-11-2017 19.9 (14:40) 5.1 (05:20) 12.5 11.39 (23:20) 6.39 (23:30) 0 0 0 0 0
20-11-2017 19.6 (15:20) 3.5 (00:00) 11.6 3.61 (09:30) 1.39 (11:00) 0 0 0 0 0
19-11-2017 15.5 (14:50) 1.3 (00:00) 8.4 3.89 (15:00) 1.94 (13:30) 0 0 0 0 0
18-11-2017 16.2 (15:00) 3.3 (00:00) 9.8 5.83 (15:20) 2.78 (15:00) 0 0 0 0 0
17-11-2017 15.9 (15:00) 4.8 (00:00) 10.3 5.56 (14:50) 3.33 (13:20) 0 0 0 0 0
16-11-2017 16.8 (14:40) 3.8 (00:00) 10.3 4.72 (15:50) 1.94 (14:50) 0 0 0 0 0
15-11-2017 15.2 (15:00) 2.2 (00:00) 8.7 3.06 (15:30) 1.94 (15:40) 0.2 0 0.2 0 0
14-11-2017 14.6 (15:00) 1.9 (00:00) 8.3 5.28 (14:30) 3.06 (14:30) 0 0 0 0 0
13-11-2017 12.1 (15:00) 5.1 (00:00) 8.6 6.67 (01:20) 2.78 (15:30) 2.2 1.2 0.4 0.4 0.2
12-11-2017 17.4 (13:50) 4.8 (00:00) 11.1 5.83 (13:30) 2.78 (13:20) 3.4 0 0 1.4 2
11-11-2017 17 (15:10) 6.3 (00:00) 11.7 5 (13:40) 2.22 (13:50) 0 0 0 0 0
10-11-2017 13.1 (14:10) 8.4 (00:00) 10.8 3.61 (15:40) 1.39 (12:40) 10.6 4.2 4 2.2 0.2
09-11-2017 13.1 (14:40) 3.4 (00:00) 8.3 3.89 (14:30) 2.22 (14:50) 1.8 0.8 0 0 1
08-11-2017 8.6 (00:00) 5 (00:00) 6.8 5.83 (15:00) 1.94 (14:50) 26.8 3.8 4 10.8 8.2
07-11-2017 13.8 (13:20) 2.5 (00:00) 8.2 3.89 (19:20) 1.67 (11:40) 12.4 0 0 3 9.4
06-11-2017 11.6 (15:30) 4.4 (00:00) 8 2.78 (02:10) 1.67 (04:50) 3.6 2.8 0.8 0 0
05-11-2017 10.7 (00:00) 7.3 (00:00) 9 5 (01:40) 1.94 (19:00) 12.6 5.2 2.4 3.2 1.8
04-11-2017 14.9 (13:10) 9 (00:00) 11.9 5.56 (15:20) 2.5 (15:30) 19.6 0 0.8 5.2 13.6
03-11-2017 21.2 (13:30) 9.4 (00:00) 15.3 10.83 (14:30) 4.72 (14:30) 2.4 1 1.4 0 0
02-11-2017 20.9 (15:50) 13.4 (00:30) 17.1 8.33 (14:20) 3.89 (14:20) 0 0 0 0 0
01-11-2017 24.1 (15:10) 6.6 (00:00) 15.4 10.28 (16:00) 5.28 (16:00) 0 0 0 0 0
31-10-2017 16.7 (15:00) 5.7 (00:00) 11.2 4.72 (14:50) 2.78 (15:30) 0 0 0 0 0
30-10-2017 13.9 (14:10) 7.7 (00:00) 10.8 6.39 (13:10) 3.06 (13:10) 3.8 0.2 2.2 1.4 0
29-10-2017 19.8 (13:30) 9.9 (00:00) 14.8 6.67 (11:30) 3.33 (12:40) 0 0 0 0 0
28-10-2017 20.8 (14:30) 12.6 (00:00) 16.7 6.94 (17:00) 3.06 (17:00) 0 0 0 0 0
27-10-2017 23.9 (15:40) 9.7 (00:00) 16.8 6.39 (16:20) 3.33 (16:10) 0 0 0 0 0
26-10-2017 25.2 (15:30) 10.8 (00:00) 18 9.72 (03:20) 4.72 (03:20) 0 0 0 0 0

Gráficas

Temp. máximas Temp. mínimas Temp. medias Precipitaciones Rachas de viento máximas Velocidades máximas media en intervalos de 10 minutos

Datos horarios

Fecha y hora oficial Temperatura (ºC) Velocidad del viento (km/h) Dirección del viento Racha (km/h) Dirección de racha Precipitación (mm) Presión (hPa) Tendencia (hPa) Humedad (%)
2017-11-24 23:00:00 10.7 0 Calma 5 Oeste 1.8 -- -- 100
2017-11-24 22:00:00 10.7 0 Calma 3 Norte 1.8 -- -- 100
2017-11-24 21:00:00 10.7 0 Calma 4 Oeste 0.8 -- -- 99
2017-11-24 20:00:00 10.7 0 Calma 4 Noroeste 1 -- -- 99
2017-11-24 19:00:00 10.8 0 Calma 4 Oeste 2.6 -- -- 97
2017-11-24 18:00:00 11.4 4 Oeste 5 Oeste 0.6 -- -- 96
2017-11-24 17:00:00 12 0 Calma 14 Oeste 2.2 -- -- 94
2017-11-24 16:00:00 13.8 0 Calma 7 Oeste 0 -- -- 88
2017-11-24 15:00:00 14.7 4 Oeste 10 Sudoeste 0 -- -- 82
2017-11-24 14:00:00 14.5 3 Sur 8 Sudoeste 0 -- -- 85
2017-11-24 13:00:00 13.1 5 Noroeste 14 Oeste 0 -- -- 89
2017-11-24 12:00:00 13.5 5 Oeste 14 Noroeste 0 -- -- 89
2017-11-24 11:00:00 13 3 Sudoeste 6 Sudoeste 0 -- -- 91
2017-11-24 10:00:00 12.6 2 Sudoeste 6 Oeste 0 -- -- 93
2017-11-24 09:00:00 12.4 0 Calma 10 Oeste 0 -- -- 94
2017-11-24 08:00:00 12.4 2 Noroeste 6 Oeste 0 -- -- 94
2017-11-24 07:00:00 13.2 5 Noroeste 18 Sur 0 -- -- 82
2017-11-24 06:00:00 13.7 10 Sudeste 25 Este 0.2 -- -- 73
2017-11-24 05:00:00 15.1 11 Sudeste 34 Este 0 -- -- 63
2017-11-24 04:00:00 16.5 12 Este 38 Sudeste 0 -- -- 52
2017-11-24 03:00:00 17.2 10 Sudeste 31 Este 0 -- -- 49
2017-11-24 02:00:00 17.3 12 Sudeste 36 Sudoeste 0 -- -- 48
2017-11-24 01:00:00 17.7 8 Sudeste 25 Este 0 -- -- 49
2017-11-24 00:00:00 18.2 11 Sudeste 28 Sudeste 0 -- -- 48
2017-11-23 23:00:00 17.9 10 Sudeste 32 Sur 0 -- -- 51
2017-11-23 22:00:00 18.1 10 Sudeste 37 Sur 0 -- -- 53
2017-11-23 21:00:00 18.5 18 Sudeste 42 Sudeste 0 -- -- 55
2017-11-23 20:00:00 18.7 18 Sudeste 51 Sur 0 -- -- 55
2017-11-23 19:00:00 18.7 15 Sudeste 39 Sur 0 -- -- 54
2017-11-23 18:00:00 19 15 Sudeste 41 Sur 0 -- -- 52
2017-11-23 17:00:00 19.2 12 Sudeste 48 Sudeste 0 -- -- 50
2017-11-23 16:00:00 18.8 17 Sudeste 43 Sudeste 0 -- -- 47
2017-11-23 15:00:00 18.6 19 Sudeste 41 Sudeste 0 -- -- 46
2017-11-23 14:00:00 18.7 19 Sudeste 42 Sudeste 0 -- -- 48
2017-11-23 13:00:00 19.3 22 Este 43 Este 0 -- -- 46
2017-11-23 12:00:00 19.6 17 Sudeste 44 Sudeste 0 -- -- 45
2017-11-23 11:00:00 18.2 14 Este 35 Sudeste 0 -- -- 49
2017-11-23 10:00:00 16.5 12 Sudeste 33 Sudeste 0 -- -- 54
2017-11-23 09:00:00 15.7 15 Sudeste 47 Sur 0 -- -- 54
2017-11-23 08:00:00 16.1 19 Sudeste 48 Sudeste 0 -- -- 52
2017-11-23 07:00:00 16.4 21 Sudeste 46 Sudeste 0 -- -- 49
2017-11-23 06:00:00 16.7 19 Sudeste 46 Sur 0 -- -- 47
2017-11-23 05:00:00 16.7 18 Sur 50 Sur 0 -- -- 45
2017-11-23 04:00:00 17.2 20 Sur 53 Sur 0 -- -- 42
2017-11-23 03:00:00 17.2 24 Sur 57 Sur 0 -- -- 42
2017-11-23 02:00:00 17 27 Sudeste 53 Sur 0 -- -- 42
2017-11-23 01:00:00 16.9 20 Sudeste 48 Este 0 -- -- 40
2017-11-23 00:00:00 17.7 21 Sudeste 52 Sudeste 0 -- -- 37
2017-11-22 23:00:00 17.8 15 Sudeste 50 Sur 0 -- -- 35
2017-11-22 22:00:00 18.5 18 Sudeste 58 Sudeste 0 -- -- 35
2017-11-22 21:00:00 18.8 21 Sudeste 70 Sur 0 -- -- 35
2017-11-22 20:00:00 18.6 16 Sudeste 59 Sudeste 0 -- -- 36
2017-11-22 19:00:00 18.6 20 Este 55 Sudeste 0 -- -- 38
2017-11-22 18:00:00 19.2 19 Sudeste 40 Sudeste 0 -- -- 37
2017-11-22 17:00:00 19 15 Sudeste 47 Sur 0 -- -- 38
2017-11-22 16:00:00 20.8 21 Sur 48 Sur 0 -- -- 34
2017-11-22 15:00:00 21.1 10 Sudeste 51 Sudeste 0 -- -- 35
2017-11-22 14:00:00 22.7 15 Sur 46 Sur 0 -- -- 30
2017-11-22 13:00:00 21.9 16 Sudeste 46 Sur 0 -- -- 30
2017-11-22 12:00:00 21.3 23 Sudeste 45 Este 0 -- -- 29
2017-11-22 11:00:00 20.5 21 Sudeste 45 Sur 0 -- -- 30
2017-11-22 10:00:00 18 12 Sudeste 43 Sur 0 -- -- 34
2017-11-22 09:00:00 17.8 22 Este 56 Sudeste 0 -- -- 33
2017-11-22 08:00:00 17.5 23 Sudeste 56 Este 0 -- -- 33
2017-11-22 07:00:00 17.1 26 Este 57 Este 0 -- -- 33
2017-11-22 06:00:00 16.7 22 Este 57 Sudeste 0 -- -- 34
2017-11-22 05:00:00 16.9 22 Sudeste 51 Este 0 -- -- 33
2017-11-22 04:00:00 17.1 21 Este 46 Este 0 -- -- 33
2017-11-22 03:00:00 17.1 17 Este 42 Este 0 -- -- 33
2017-11-22 02:00:00 16.9 14 Este 41 Este 0 -- -- 32
2017-11-22 01:00:00 16.4 17 Este 39 Sudeste 0 -- -- 28
2017-11-22 00:00:00 16.6 18 Este 41 Nordeste 0 -- -- 28
2017-11-21 23:00:00 15.8 16 Este 33 Este 0 -- -- 29
2017-11-21 22:00:00 15.1 11 Sudeste 35 Sudeste 0 -- -- 34
2017-11-21 21:00:00 13.4 9 Sudeste 22 Sudeste 0 -- -- 38
2017-11-21 20:00:00 9.7 3 Sudoeste 11 Norte 0 -- -- 61
2017-11-21 19:00:00 8.5 0 Calma 5 Sudoeste 0 -- -- 72
2017-11-21 18:00:00 10.5 3 Sudoeste 6 Sudoeste 0 -- -- 66
2017-11-21 17:00:00 14.4 2 Sudoeste 5 Sur 0 -- -- 52
2017-11-21 16:00:00 18.6 3 Sudoeste 9 Sudoeste 0 -- -- 42
2017-11-21 15:00:00 19.7 5 Sudoeste 8 Sudoeste 0 -- -- 40
2017-11-21 14:00:00 19.2 5 Sudoeste 9 Sudoeste 0 -- -- 41
2017-11-21 13:00:00 17.8 4 Sur 8 Sudoeste 0 -- -- 43
2017-11-21 12:00:00 16.2 3 Sur 10 Sur 0 -- -- 42
2017-11-21 11:00:00 13.5 3 Sudoeste 10 Sur 0 -- -- 48
2017-11-21 10:00:00 9.7 3 Este 9 Este 0 -- -- 53
2017-11-21 09:00:00 7 3 Noroeste 8 Este 0 -- -- 68
2017-11-21 08:00:00 5.8 0 Calma 4 Este 0 -- -- 72
2017-11-21 07:00:00 6 0 Calma 8 Sudoeste 0 -- -- 74
2017-11-21 06:00:00 6 2 Sudoeste 8 Sudoeste 0 -- -- 75
2017-11-21 05:00:00 5.4 0 Calma 4 Norte 0 -- -- 77
2017-11-21 04:00:00 5.8 0 Calma 4 Este 0 -- -- 77
2017-11-21 03:00:00 5.6 2 Oeste 5 Oeste 0 -- -- 79
2017-11-21 02:00:00 6 0 Calma 4 Oeste 0 -- -- 78
2017-11-21 01:00:00 5.7 0 Calma 5 Noroeste 0 -- -- 81
2017-11-21 00:00:00 7 2 Sudoeste 4 Sur 0 -- -- 76
2017-11-20 23:00:00 6.8 0 Calma 5 Noroeste 0 -- -- 78
2017-11-20 22:00:00 7.4 0 Calma 9 Sudoeste 0 -- -- 77
2017-11-20 21:00:00 8 3 Sudoeste 9 Sur 0 -- -- 76
2017-11-20 20:00:00 8.7 3 Oeste 6 Oeste 0 -- -- 75
2017-11-20 19:00:00 9.5 2 Oeste 6 Sudoeste 0 -- -- 73
2017-11-20 18:00:00 10.9 3 Sudoeste 4 Sur 0 -- -- 70
2017-11-20 17:00:00 15 0 Calma 2 Sur 0 -- -- 61
2017-11-20 16:00:00 19 3 Sudoeste 8 Sudoeste 0 -- -- 45
2017-11-20 15:00:00 19.2 3 Sur 8 Sur 0 -- -- 46
2017-11-20 14:00:00 19.2 4 Sur 8 Sudoeste 0 -- -- 41
2017-11-20 13:00:00 17.8 4 Sudoeste 8 Sudoeste 0 -- -- 45
2017-11-20 12:00:00 15.7 3 Sur 9 Sudeste 0 -- -- 48
2017-11-20 11:00:00 13.2 5 Sur 10 Sur 0 -- -- 49
2017-11-20 10:00:00 9.4 0 Calma 13 Sudoeste 0 -- -- 56
2017-11-20 09:00:00 7 2 Sudeste 9 Sudeste 0 -- -- 66
2017-11-20 08:00:00 5.8 0 Calma 8 Sudeste 0 -- -- 69
2017-11-20 07:00:00 5.1 0 Calma 6 Noroeste 0 -- -- 75
2017-11-20 06:00:00 5.2 2 Noroeste 5 Noroeste 0 -- -- 74
2017-11-20 05:00:00 4.8 0 Calma 4 Noroeste 0 -- -- 78
2017-11-20 04:00:00 4.6 2 Norte 5 Nordeste 0 -- -- 79
2017-11-20 03:00:00 4.3 3 Norte 4 Norte 0 -- -- 81
2017-11-20 02:00:00 4.4 0 Calma 5 Norte 0 -- -- 82
2017-11-20 01:00:00 4.1 0 Calma 5 Norte 0 -- -- 85
2017-11-20 00:00:00 3.5 0 Calma 3 Norte 0 -- -- 89
2017-11-19 23:00:00 4 0 Calma 4 Norte 0 -- -- 86
2017-11-19 22:00:00 5.3 3 Noroeste 9 Sudeste 0 -- -- 80
2017-11-19 21:00:00 4.9 0 Calma 5 Norte 0 -- -- 84
2017-11-19 20:00:00 5.5 0 Calma 5 Oeste 0 -- -- 83
2017-11-19 19:00:00 5.8 0 Calma 3 Oeste 0 -- -- 84
2017-11-19 18:00:00 7.5 2 Oeste 4 Oeste 0 -- -- 80
2017-11-19 17:00:00 10.8 0 Calma 10 Oeste 0 -- -- 71
2017-11-19 16:00:00 14.8 5 Sudoeste 12 Oeste 0 -- -- 56
2017-11-19 15:00:00 15.4 6 Sudoeste 14 Sudoeste 0 -- -- 55
2017-11-19 14:00:00 14.4 6 Sudoeste 14 Sudoeste 0 -- -- 58
2017-11-19 13:00:00 13 5 Sudoeste 10 Sudoeste 0 -- -- 54
2017-11-19 12:00:00 10.8 4 Sur 7 Sur 0 -- -- 68
2017-11-19 11:00:00 8 3 Oeste 5 Oeste 0 -- -- 68
2017-11-19 10:00:00 4 0 Calma 3 Nordeste 0 -- -- 90
2017-11-19 09:00:00 2 2 Nordeste 4 Nordeste 0 -- -- 94
2017-11-19 08:00:00 1.3 0 Calma 4 Nordeste 0 -- -- 95
2017-11-19 07:00:00 1.5 0 Calma 3 Nordeste 0 -- -- 96
2017-11-19 06:00:00 2 0 Calma 4 Nordeste 0 -- -- 96
2017-11-19 05:00:00 2.5 0 Calma 5 Norte 0 -- -- 97
2017-11-19 04:00:00 2.9 0 Calma 4 Noroeste 0 -- -- 99
2017-11-19 03:00:00 3.5 0 Calma 4 Noroeste 0 -- -- 100
2017-11-19 02:00:00 4.1 0 Calma 4 Noroeste 0 -- -- 100
2017-11-19 01:00:00 4.2 0 Calma 2 Noroeste 0 -- -- 99
2017-11-19 00:00:00 5.1 2 Noroeste 5 Noroeste 0 -- -- 99
2017-11-18 23:00:00 5.3 0 Calma 4 Norte 0 -- -- 98
2017-11-18 22:00:00 6.7 2 Norte 7 Nordeste 0 -- -- 94
2017-11-18 21:00:00 9 0 Calma 5 Noroeste 0 -- -- 92
2017-11-18 20:00:00 8.8 0 Calma 2 Nordeste 0 -- -- 97
2017-11-18 19:00:00 7.7 0 Calma 4 Nordeste 0 -- -- 96
2017-11-18 18:00:00 9.3 2 Nordeste 5 Nordeste 0 -- -- 90
2017-11-18 17:00:00 12.8 5 Oeste 14 Oeste 0 -- -- 79
2017-11-18 16:00:00 15.4 6 Oeste 21 Oeste 0 -- -- 69
2017-11-18 15:00:00 16.2 10 Sur 17 Sudoeste 0 -- -- 66
2017-11-18 14:00:00 15.2 9 Sur 17 Sudoeste 0 -- -- 65
2017-11-18 13:00:00 14 8 Sudoeste 12 Sudoeste 0 -- -- 68
2017-11-18 12:00:00 11.9 4 Sur 8 Sur 0 -- -- 73
2017-11-18 11:00:00 9.1 3 Sudoeste 6 Sudoeste 0 -- -- 79
2017-11-18 10:00:00 5.8 0 Calma 5 Noroeste 0 -- -- 98
2017-11-18 09:00:00 4 5 Noroeste 9 Norte 0 -- -- 100
2017-11-18 08:00:00 3.6 0 Calma 5 Noroeste 0 -- -- 100
2017-11-18 07:00:00 3.9 2 Oeste 4 Oeste 0 -- -- 100
2017-11-18 06:00:00 4.2 2 Oeste 4 Oeste 0 -- -- 100
2017-11-18 05:00:00 4.7 3 Noroeste 5 Oeste 0 -- -- 100
2017-11-18 04:00:00 5.5 0 Calma 5 Noroeste 0 -- -- 100
2017-11-18 03:00:00 5.7 0 Calma 4 Oeste 0 -- -- 100
2017-11-18 02:00:00 6.3 0 Calma 4 Sudoeste 0 -- -- 98
2017-11-18 01:00:00 7.3 0 Calma 3 Oeste 0 -- -- 98
2017-11-18 00:00:00 8.3 0 Calma 4 Oeste 0 -- -- 97
2017-11-17 23:00:00 9.7 0 Calma 4 Oeste 0 -- -- 94
2017-11-17 22:00:00 9.9 0 Calma 3 Sudoeste 0 -- -- 93
2017-11-17 21:00:00 9.9 0 Calma 2 Oeste 0 -- -- 94
2017-11-17 20:00:00 9.9 0 Calma 2 Sudoeste 0 -- -- 94
2017-11-17 19:00:00 9.6 0 Calma 4 Oeste 0 -- -- 97
2017-11-17 18:00:00 9.6 0 Calma 4 Sur 0 -- -- 91
2017-11-17 17:00:00 12.6 2 Sur 12 Sudoeste 0 -- -- 81
2017-11-17 16:00:00 15.1 7 Sur 17 Sudoeste 0 -- -- 72
2017-11-17 15:00:00 15.9 9 Sudoeste 20 Sudoeste 0 -- -- 68
2017-11-17 14:00:00 15.3 10 Sur 18 Sudoeste 0 -- -- 70
2017-11-17 13:00:00 14.6 9 Sudoeste 14 Sudoeste 0 -- -- 72
2017-11-17 12:00:00 12.9 5 Sur 9 Sur 0 -- -- 74
2017-11-17 11:00:00 10.5 5 Sur 9 Sur 0 -- -- 84
2017-11-17 10:00:00 8.4 2 Sudoeste 7 Sudeste 0 -- -- 93
2017-11-17 09:00:00 7.3 0 Calma 4 Sudoeste 0 -- -- 95
2017-11-17 08:00:00 7 2 Oeste 5 Sudoeste 0 -- -- 95
2017-11-17 07:00:00 7 0 Calma 4 Oeste 0 -- -- 97
2017-11-17 06:00:00 6.4 0 Calma 5 Oeste 0 -- -- 98
2017-11-17 05:00:00 6.1 0 Calma 3 Oeste 0 -- -- 100
2017-11-17 04:00:00 5.6 2 Oeste 4 Oeste 0 -- -- 100
2017-11-17 03:00:00 5 0 Calma 3 Oeste 0 -- -- 100
2017-11-17 02:00:00 5 0 Calma 5 Oeste 0 -- -- 100
2017-11-17 01:00:00 4.9 0 Calma 2 Sudoeste 0 -- -- 100
2017-11-17 00:00:00 5.2 0 Calma 3 Oeste 0 -- -- 99
2017-11-16 23:00:00 5.8 0 Calma 4 Noroeste 0 -- -- 98
2017-11-16 22:00:00 6.4 0 Calma 4 Oeste 0 -- -- 97
2017-11-16 21:00:00 6.9 0 Calma 3 Oeste 0 -- -- 97
2017-11-16 20:00:00 7.5 0 Calma 4 Oeste 0 -- -- 96
2017-11-16 19:00:00 8.5 0 Calma 4 Noroeste 0 -- -- 93
2017-11-16 18:00:00 10.3 0 Calma 3 Noroeste 0 -- -- 89
2017-11-16 17:00:00 13.5 0 Calma 8 Sudoeste 0 -- -- 75
2017-11-16 16:00:00 15.3 5 Sudoeste 17 Sudoeste 0 -- -- 65
2017-11-16 15:00:00 16.7 5 Sur 14 Sudoeste 0 -- -- 57
2017-11-16 14:00:00 16.2 7 Sudoeste 13 Oeste 0 -- -- 62
2017-11-16 13:00:00 15.2 5 Sudoeste 11 Sudoeste 0 -- -- 65
2017-11-16 12:00:00 13.6 4 Sudoeste 8 Sur 0 -- -- 69
2017-11-16 11:00:00 11 2 Sudoeste 6 Sudoeste 0 -- -- 68
2017-11-16 10:00:00 7.9 3 Oeste 4 Oeste 0 -- -- 82
2017-11-16 09:00:00 4.4 0 Calma 3 Norte 0 -- -- 97
2017-11-16 08:00:00 3.9 0 Calma 3 Norte 0 -- -- 97
2017-11-16 07:00:00 4 0 Calma 4 Norte 0 -- -- 96
2017-11-16 06:00:00 4.4 0 Calma 3 Norte 0 -- -- 95
2017-11-16 05:00:00 4.8 3 Norte 4 Norte 0 -- -- 95
2017-11-16 04:00:00 5.1 0 Calma 3 Norte 0 -- -- 94
2017-11-16 03:00:00 5.2 0 Calma 4 Norte 0 -- -- 93
2017-11-16 02:00:00 5.8 2 Norte 5 Norte 0 -- -- 92
2017-11-16 01:00:00 6 2 Sudoeste 8 Sudoeste 0 -- -- 93
2017-11-16 00:00:00 5.8 0 Calma 5 Nordeste 0 -- -- 93
2017-11-15 23:00:00 6.5 2 Sudeste 8 Este 0 -- -- 92
2017-11-15 22:00:00 5.9 0 Calma 4 Oeste 0 -- -- 96
2017-11-15 21:00:00 6.4 2 Oeste 5 Oeste 0 -- -- 96
2017-11-15 20:00:00 6.7 0 Calma 4 Oeste 0 -- -- 94
2017-11-15 19:00:00 7.3 0 Calma 4 Oeste 0 -- -- 93
2017-11-15 18:00:00 8.6 2 Oeste 3 Oeste 0 -- -- 84
2017-11-15 17:00:00 12.3 0 Calma 9 Oeste 0 -- -- 67
2017-11-15 16:00:00 14.9 6 Sudoeste 11 Sudoeste 0 -- -- 59
2017-11-15 15:00:00 15.2 5 Sudoeste 10 Sudoeste 0 -- -- 61
2017-11-15 14:00:00 13.7 5 Sudoeste 10 Sudoeste 0 -- -- 65
2017-11-15 13:00:00 11.4 4 Sudoeste 9 Sudoeste 0 -- -- 74
2017-11-15 12:00:00 10.6 4 Sur 8 Sudoeste 0 -- -- 82
2017-11-15 11:00:00 8.1 3 Sudoeste 6 Sur 0 -- -- 92
2017-11-15 10:00:00 5.2 0 Calma 3 Nordeste 0 -- -- 100
2017-11-15 09:00:00 3.2 0 Calma 4 Nordeste 0.2 -- -- 100
2017-11-15 08:00:00 2.4 0 Calma 3 Norte 0 -- -- 100
2017-11-15 07:00:00 2.2 0 Calma 3 Nordeste 0 -- -- 100
2017-11-15 06:00:00 2.5 0 Calma 3 Norte 0 -- -- 100
2017-11-15 05:00:00 2.6 0 Calma 3 Noroeste 0 -- -- 100
2017-11-15 04:00:00 2.6 0 Calma 5 Noroeste 0 -- -- 100
2017-11-15 03:00:00 2.7 2 Noroeste 6 Noroeste 0 -- -- 100
2017-11-15 02:00:00 2.9 0 Calma 4 Norte 0 -- -- 100
2017-11-15 01:00:00 3.3 0 Calma 4 Norte 0 -- -- 100
2017-11-15 00:00:00 3.4 0 Calma 4 Noroeste 0 -- -- 100
2017-11-14 23:00:00 3.6 0 Calma 5 Norte 0 -- -- 99
2017-11-14 22:00:00 4.1 0 Calma 4 Sur 0 -- -- 100
2017-11-14 21:00:00 4.4 3 Sur 5 Sur 0 -- -- 99
2017-11-14 20:00:00 5.1 0 Calma 4 Sur 0 -- -- 96
2017-11-14 19:00:00 6 2 Sur 4 Sur 0 -- -- 94
2017-11-14 18:00:00 7.6 0 Calma 2 Sur 0 -- -- 88
2017-11-14 17:00:00 10.7 0 Calma 14 Oeste 0 -- -- 74
2017-11-14 16:00:00 13.7 5 Sur 18 Oeste 0 -- -- 66
2017-11-14 15:00:00 14.6 10 Sur 19 Sudoeste 0 -- -- 65
2017-11-14 14:00:00 13.8 9 Sur 16 Sur 0 -- -- 63
2017-11-14 13:00:00 12.3 7 Sur 12 Sudoeste 0 -- -- 69
2017-11-14 12:00:00 10.4 4 Sur 9 Sur 0 -- -- 78
2017-11-14 11:00:00 7.8 4 Sur 7 Sudoeste 0 -- -- 87
2017-11-14 10:00:00 4.7 3 Oeste 5 Sudoeste 0 -- -- 98
2017-11-14 09:00:00 2.6 0 Calma 7 Oeste 0 -- -- 100
2017-11-14 08:00:00 2 0 Calma 4 Norte 0 -- -- 100
2017-11-14 07:00:00 2.2 2 Norte 4 Norte 0 -- -- 100
2017-11-14 06:00:00 2.3 0 Calma 4 Norte 0 -- -- 100
2017-11-14 05:00:00 2.6 2 Norte 4 Nordeste 0 -- -- 100
2017-11-14 04:00:00 2.6 0 Calma 3 Norte 0 -- -- 100
2017-11-14 03:00:00 2.9 0 Calma 4 Norte 0 -- -- 100
2017-11-14 02:00:00 3.4 3 Norte 5 Nordeste 0 -- -- 100
2017-11-14 01:00:00 3.9 2 Norte 9 Norte 0 -- -- 98
2017-11-14 00:00:00 5.7 6 Norte 9 Norte 0 -- -- 93
2017-11-13 23:00:00 6.5 2 Norte 10 Norte 0 -- -- 94
2017-11-13 22:00:00 5.1 4 Norte 9 Norte 0 -- -- 96
2017-11-13 21:00:00 5.9 6 Norte 9 Norte 0.2 -- -- 94
2017-11-13 20:00:00 6.4 2 Norte 9 Norte 0 -- -- 95
2017-11-13 19:00:00 6.7 0 Calma 7 Nordeste 0 -- -- 93
2017-11-13 18:00:00 7.2 5 Norte 11 Noroeste 0 -- -- 86
2017-11-13 17:00:00 9.1 3 Oeste 15 Norte 0 -- -- 78
2017-11-13 16:00:00 10.4 6 Sudoeste 19 Oeste 0 -- -- 80
2017-11-13 15:00:00 12.1 7 Sudoeste 15 Oeste 0.2 -- -- 76
2017-11-13 14:00:00 10 5 Sudoeste 22 Oeste 0 -- -- 85
2017-11-13 13:00:00 9.8 7 Sudoeste 15 Noroeste 0.2 -- -- 89
2017-11-13 12:00:00 9.4 3 Oeste 12 Oeste 0.2 -- -- 92
2017-11-13 11:00:00 10 7 Sudoeste 13 Sudoeste 0 -- -- 88
2017-11-13 10:00:00 8.7 2 Sur 19 Oeste 0 -- -- 98
2017-11-13 09:00:00 8.2 9 Oeste 20 Oeste 0 -- -- 99
2017-11-13 08:00:00 8.3 4 Oeste 11 Noroeste 0 -- -- 99
2017-11-13 07:00:00 8.4 4 Noroeste 10 Oeste 0.2 -- -- 99
2017-11-13 06:00:00 8.7 4 Noroeste 9 Oeste 0.2 -- -- 97
2017-11-13 05:00:00 8.6 4 Norte 15 Noroeste 0 -- -- 95
2017-11-13 04:00:00 9.1 5 Oeste 12 Oeste 0 -- -- 97
2017-11-13 03:00:00 9.5 8 Oeste 14 Sudoeste 0 -- -- 95
2017-11-13 02:00:00 10.1 8 Oeste 24 Oeste 0 -- -- 97
2017-11-13 01:00:00 10.7 6 Oeste 19 Oeste 1 -- -- 97
2017-11-13 00:00:00 11.3 3 Noroeste 5 Noroeste 0 -- -- 100
2017-11-12 23:00:00 11.5 2 Oeste 5 Oeste 0.6 -- -- 100
2017-11-12 22:00:00 11.5 2 Norte 5 Noroeste 0.6 -- -- 100
2017-11-12 21:00:00 11.7 3 Noroeste 5 Norte 0 -- -- 99
2017-11-12 20:00:00 11.9 0 Calma 6 Oeste 0.6 -- -- 99
2017-11-12 19:00:00 12.2 4 Norte 6 Nordeste 0.2 -- -- 99
2017-11-12 18:00:00 12.5 3 Norte 8 Norte 0.6 -- -- 97
2017-11-12 17:00:00 13.1 5 Noroeste 9 Norte 0.6 -- -- 94
2017-11-12 16:00:00 14 5 Norte 12 Noroeste 0.2 -- -- 86
2017-11-12 15:00:00 15.7 3 Sudoeste 15 Oeste 0 -- -- 73
2017-11-12 14:00:00 16.9 4 Sur 21 Sur 0 -- -- 69
2017-11-12 13:00:00 12.7 4 Este 12 Sudeste 0 -- -- 80
2017-11-12 12:00:00 11.6 0 Calma 12 Sudoeste 0 -- -- 81
2017-11-12 11:00:00 10.7 7 Sur 15 Sur 0 -- -- 83
2017-11-12 10:00:00 8.2 3 Sudoeste 13 Sur 0 -- -- 90
2017-11-12 09:00:00 6.7 4 Nordeste 10 Oeste 0 -- -- 96
2017-11-12 08:00:00 5.6 7 Noroeste 13 Noroeste 0 -- -- 100
2017-11-12 07:00:00 5.3 3 Oeste 8 Sudeste 0 -- -- 99
2017-11-12 06:00:00 5.3 3 Noroeste 8 Sur 0 -- -- 98
2017-11-12 05:00:00 5.9 0 Calma 8 Sur 0 -- -- 95
2017-11-12 04:00:00 6.3 2 Sudoeste 10 Sur 0 -- -- 96
2017-11-12 03:00:00 6.4 2 Oeste 9 Sudoeste 0 -- -- 96
2017-11-12 02:00:00 7 2 Oeste 10 Sur 0 -- -- 95
2017-11-12 01:00:00 6.9 0 Calma 7 Sudoeste 0 -- -- 96
2017-11-12 00:00:00 7.5 2 Oeste 6 Noroeste 0 -- -- 98
2017-11-11 23:00:00 7.1 2 Oeste 4 Oeste 0 -- -- 100
2017-11-11 22:00:00 6.3 0 Calma 6 Oeste 0 -- -- 98
2017-11-11 21:00:00 7.3 3 Oeste 5 Oeste 0 -- -- 98
2017-11-11 20:00:00 7.5 0 Calma 6 Noroeste 0 -- -- 96
2017-11-11 19:00:00 8.8 4 Oeste 8 Oeste 0 -- -- 93
2017-11-11 18:00:00 9.9 0 Calma 6 Sur 0 -- -- 87
2017-11-11 17:00:00 14.1 0 Calma 7 Sur 0 -- -- 68
2017-11-11 16:00:00 16.4 6 Sur 15 Sudoeste 0 -- -- 65
2017-11-11 15:00:00 16.5 6 Sur 15 Norte 0 -- -- 68
2017-11-11 14:00:00 16.2 6 Sudoeste 18 Oeste 0 -- -- 65
2017-11-11 13:00:00 15.6 6 Sudoeste 12 Sudoeste 0 -- -- 69
2017-11-11 12:00:00 13.6 4 Sudeste 10 Sur 0 -- -- 81
2017-11-11 11:00:00 10.4 2 Oeste 7 Oeste 0 -- -- 93
2017-11-11 10:00:00 9.5 3 Norte 7 Nordeste 0 -- -- 97
2017-11-11 09:00:00 8.7 2 Sur 10 Sur 0 -- -- 98
2017-11-11 08:00:00 8.5 2 Noroeste 7 Noroeste 0 -- -- 100
2017-11-11 07:00:00 8.2 0 Calma 6 Norte 0 -- -- 99
2017-11-11 06:00:00 8.9 0 Calma 8 Oeste 0 -- -- 99
2017-11-11 05:00:00 9 2 Noroeste 4 Noroeste 0 -- -- 100
2017-11-11 04:00:00 8.7 0 Calma 4 Noroeste 0 -- -- 100
2017-11-11 03:00:00 9.4 0 Calma 3 Noroeste 0 -- -- 100
2017-11-11 02:00:00 9.4 0 Calma 3 Noroeste 0 -- -- 100
2017-11-11 01:00:00 9.4 0 Calma 3 Noroeste 0 -- -- 99
2017-11-11 00:00:00 10 4 Noroeste 6 Noroeste 0 -- -- 99
2017-11-10 23:00:00 10.1 3 Noroeste 6 Oeste 0 -- -- 99
2017-11-10 22:00:00 10.4 0 Calma 4 Noroeste 0 -- -- 100
2017-11-10 21:00:00 10.5 3 Noroeste 5 Oeste 0 -- -- 100
2017-11-10 20:00:00 10.5 3 Noroeste 5 Oeste 0 -- -- 100
2017-11-10 19:00:00 10.7 0 Calma 5 Norte 0.2 -- -- 99
2017-11-10 18:00:00 11.4 0 Calma 9 Norte 0 -- -- 97
2017-11-10 17:00:00 11.9 3 Sudeste 8 Este 0 -- -- 99
2017-11-10 16:00:00 12 2 Noroeste 13 Oeste 1.6 -- -- 96
2017-11-10 15:00:00 12.7 0 Calma 5 Oeste 0.4 -- -- 96
2017-11-10 14:00:00 12.9 0 Calma 6 Sudoeste 0 -- -- 100
2017-11-10 13:00:00 12.1 2 Oeste 9 Oeste 0.2 -- -- 100
2017-11-10 12:00:00 11.5 5 Oeste 12 Oeste 0.8 -- -- 100
2017-11-10 11:00:00 10.9 0 Calma 5 Noroeste 0.2 -- -- 100
2017-11-10 10:00:00 10.3 4 Noroeste 8 Oeste 0.4 -- -- 100
2017-11-10 09:00:00 9.6 2 Oeste 8 Oeste 0.8 -- -- 100
2017-11-10 08:00:00 9.4 0 Calma 4 Noroeste 1 -- -- 100
2017-11-10 07:00:00 9.4 0 Calma 4 Noroeste 0.8 -- -- 100
2017-11-10 06:00:00 9.4 0 Calma 3 Noroeste 1 -- -- 100
2017-11-10 05:00:00 9.3 0 Calma 2 Norte 0.4 -- -- 100
2017-11-10 04:00:00 9.1 0 Calma 4 Noroeste 0 -- -- 100
2017-11-10 03:00:00 9 0 Calma 5 Noroeste 1.2 -- -- 100
2017-11-10 02:00:00 9 3 Noroeste 7 Norte 0.2 -- -- 100
2017-11-10 01:00:00 8.5 2 Noroeste 7 Oeste 1.4 -- -- 100
2017-11-10 00:00:00 8.4 0 Calma 3 Sur 0.4 -- -- 100
2017-11-09 23:00:00 8.4 0 Calma 5 Sudoeste 0.2 -- -- 99
2017-11-09 22:00:00 8.7 0 Calma 3 Norte 0.4 -- -- 98
2017-11-09 21:00:00 9 0 Calma 5 Noroeste 0 -- -- 94
2017-11-09 20:00:00 9.1 3 Noroeste 6 Noroeste 0 -- -- 91
2017-11-09 19:00:00 9.5 3 Nordeste 6 Norte 0 -- -- 89
2017-11-09 18:00:00 9.8 0 Calma 9 Noroeste 0 -- -- 88
2017-11-09 17:00:00 10.8 0 Calma 6 Oeste 0 -- -- 76
2017-11-09 16:00:00 11.7 6 Sudoeste 12 Sudoeste 0 -- -- 74
2017-11-09 15:00:00 12.4 8 Sudoeste 14 Sudoeste 0 -- -- 71
2017-11-09 14:00:00 11.9 4 Sudoeste 11 Sudoeste 0 -- -- 78
2017-11-09 13:00:00 10.9 2 Oeste 9 Sudoeste 0 -- -- 84
2017-11-09 12:00:00 10.1 2 Sudoeste 8 Sudoeste 0 -- -- 92
2017-11-09 11:00:00 8.9 3 Sudoeste 5 Sur 0 -- -- 94
2017-11-09 10:00:00 6.7 2 Sudeste 4 Sudeste 0 -- -- 100
2017-11-09 09:00:00 4 0 Calma 4 Nordeste 0 -- -- 100
2017-11-09 08:00:00 3.6 2 Nordeste 5 Nordeste 0 -- -- 100
2017-11-09 07:00:00 4.8 3 Nordeste 4 Nordeste 0 -- -- 100
2017-11-09 06:00:00 4 0 Calma 4 Nordeste 0 -- -- 100
2017-11-09 05:00:00 4.8 3 Este 6 Sur 0 -- -- 100
2017-11-09 04:00:00 5.5 0 Calma 6 Noroeste 0.2 -- -- 100
2017-11-09 03:00:00 4.5 0 Calma 6 Nordeste 0.2 -- -- 100
2017-11-09 02:00:00 5.4 0 Calma 4 Noroeste 0 -- -- 100
2017-11-09 01:00:00 5.4 0 Calma 6 Noroeste 0.4 -- -- 100
2017-11-09 00:00:00 5.1 2 Noroeste 6 Sur 0 -- -- 100
2017-11-08 23:00:00 5.7 4 Nordeste 8 Norte 0.8 -- -- 99
2017-11-08 22:00:00 6 6 Nordeste 8 Nordeste 0.4 -- -- 100
2017-11-08 21:00:00 5.9 0 Calma 6 Nordeste 2 -- -- 100
2017-11-08 20:00:00 6.3 0 Calma 10 Sudoeste 3.8 -- -- 100
2017-11-08 19:00:00 6.6 4 Noroeste 11 Norte 1.2 -- -- 99
2017-11-08 18:00:00 6.6 2 Este 10 Norte 2 -- -- 99
2017-11-08 17:00:00 7.2 4 Norte 9 Nordeste 0.6 -- -- 96
2017-11-08 16:00:00 7.3 0 Calma 14 Oeste 1.2 -- -- 99
2017-11-08 15:00:00 7.2 6 Noroeste 21 Noroeste 2 -- -- 95
2017-11-08 14:00:00 7.3 3 Oeste 10 Norte 3 -- -- 97
2017-11-08 13:00:00 7.7 3 Nordeste 10 Nordeste 2 -- -- 94
2017-11-08 12:00:00 8 3 Nordeste 9 Nordeste 1.4 -- -- 96
2017-11-08 11:00:00 7.5 0 Calma 9 Sur 0.4 -- -- 100
2017-11-08 10:00:00 6.7 6 Nordeste 10 Nordeste 0 -- -- 100
2017-11-08 09:00:00 6.4 2 Norte 5 Norte 0.8 -- -- 100
2017-11-08 08:00:00 6.3 2 Este 6 Noroeste 1.4 -- -- 100
2017-11-08 07:00:00 6.4 4 Nordeste 8 Este 0 -- -- 99
2017-11-08 06:00:00 6.4 3 Nordeste 6 Nordeste 0.6 -- -- 100
2017-11-08 05:00:00 6.2 4 Norte 6 Norte 0 -- -- 100
2017-11-08 04:00:00 6.9 2 Norte 11 Norte 0.2 -- -- 98
2017-11-08 03:00:00 7.3 4 Norte 8 Norte 0.8 -- -- 99
2017-11-08 02:00:00 8 4 Norte 12 Norte 2 -- -- 95
2017-11-08 01:00:00 8.2 4 Noroeste 9 Oeste 0.2 -- -- 100
2017-11-08 00:00:00 8.6 2 Noroeste 9 Oeste 1.2 -- -- 96
2017-11-07 23:00:00 8.7 4 Norte 8 Nordeste 0.4 -- -- 99
2017-11-07 22:00:00 8.8 5 Nordeste 9 Nordeste 0.2 -- -- 99
2017-11-07 21:00:00 9.2 2 Norte 10 Nordeste 2.8 -- -- 98
2017-11-07 20:00:00 9.5 0 Calma 14 Noroeste 3 -- -- 98
2017-11-07 19:00:00 9.8 4 Noroeste 9 Noroeste 1.8 -- -- 100
2017-11-07 18:00:00 9.8 3 Oeste 10 Oeste 0.8 -- -- 98
2017-11-07 17:00:00 10.2 0 Calma 3 Oeste 1 -- -- 97
2017-11-07 16:00:00 11 0 Calma 3 Oeste 0.8 -- -- 93
2017-11-07 15:00:00 11.9 0 Calma 10 Este 0.4 -- -- 87
2017-11-07 14:00:00 13.3 4 Oeste 14 Oeste 0 -- -- 76
2017-11-07 13:00:00 13.5 4 Sudoeste 9 Oeste 0 -- -- 74
2017-11-07 12:00:00 11.6 4 Sur 12 Oeste 0 -- -- 77
2017-11-07 11:00:00 10 4 Sur 6 Sudoeste 0 -- -- 83
2017-11-07 10:00:00 7.4 3 Sur 6 Sur 0 -- -- 89
2017-11-07 09:00:00 3.3 2 Norte 6 Nordeste 0 -- -- 100
2017-11-07 08:00:00 2.5 0 Calma 4 Nordeste 0 -- -- 100
2017-11-07 07:00:00 2.7 0 Calma 5 Norte 0 -- -- 100
2017-11-07 06:00:00 2.8 0 Calma 5 Norte 0 -- -- 100
2017-11-07 05:00:00 3.3 2 Este 4 Este 0 -- -- 100
2017-11-07 04:00:00 3.7 0 Calma 5 Sudeste 0 -- -- 100
2017-11-07 03:00:00 3.4 0 Calma 4 Noroeste 0 -- -- 100
2017-11-07 02:00:00 4 2 Noroeste 5 Noroeste 0 -- -- 100
2017-11-07 01:00:00 4.6 3 Sudoeste 8 Sur 0 -- -- 100
2017-11-07 00:00:00 4.5 0 Calma 3 Oeste 0 -- -- 100
2017-11-06 23:00:00 4.9 2 Oeste 6 Oeste 0 -- -- 100
2017-11-06 22:00:00 5.2 0 Calma 4 Noroeste 0 -- -- 100
2017-11-06 21:00:00 5.7 0 Calma 4 Noroeste 0 -- -- 99
2017-11-06 20:00:00 6.9 2 Noroeste 4 Noroeste 0 -- -- 97
2017-11-06 19:00:00 8.1 2 Noroeste 5 Noroeste 0 -- -- 95
2017-11-06 18:00:00 9.9 0 Calma 7 Oeste 0 -- -- 93
2017-11-06 17:00:00 10.7 3 Sudoeste 8 Sudoeste 0 -- -- 84
2017-11-06 16:00:00 11.2 4 Oeste 10 Oeste 0 -- -- 84
2017-11-06 15:00:00 11.3 0 Calma 6 Oeste 0 -- -- 87
2017-11-06 14:00:00 10.7 0 Calma 5 Oeste 0 -- -- 97
2017-11-06 13:00:00 10.8 2 Oeste 5 Noroeste 0 -- -- 96
2017-11-06 12:00:00 10.7 0 Calma 8 Sudoeste 0.2 -- -- 93
2017-11-06 11:00:00 10.3 3 Sudoeste 6 Sudoeste 0 -- -- 100
2017-11-06 10:00:00 8.7 2 Noroeste 5 Noroeste 0 -- -- 100
2017-11-06 09:00:00 8.1 0 Calma 6 Noroeste 0 -- -- 100
2017-11-06 08:00:00 8.1 3 Noroeste 6 Oeste 0.6 -- -- 100
2017-11-06 07:00:00 8 3 Norte 5 Norte 0 -- -- 100
2017-11-06 06:00:00 8.3 2 Norte 8 Norte 0.8 -- -- 100
2017-11-06 05:00:00 8.4 3 Norte 9 Norte 0 -- -- 99
2017-11-06 04:00:00 8.4 0 Calma 8 Norte 0.2 -- -- 100
2017-11-06 03:00:00 8.4 0 Calma 10 Norte 1.4 -- -- 100
2017-11-06 02:00:00 8.3 4 Norte 6 Nordeste 0 -- -- 100
2017-11-06 01:00:00 8.4 0 Calma 6 Noroeste 0.4 -- -- 100
2017-11-06 00:00:00 8.2 4 Norte 6 Oeste 0.4 -- -- 100
2017-11-05 23:00:00 8.5 0 Calma 6 Norte 0.4 -- -- 99
2017-11-05 22:00:00 8.6 4 Norte 7 Norte 0.4 -- -- 97
2017-11-05 21:00:00 8.6 4 Norte 8 Norte 0.2 -- -- 97
2017-11-05 20:00:00 8.6 5 Norte 9 Norte 0 -- -- 96
2017-11-05 19:00:00 8.8 7 Nordeste 11 Nordeste 0.4 -- -- 94
2017-11-05 18:00:00 8.9 3 Norte 7 Norte 0 -- -- 98
2017-11-05 17:00:00 9.4 2 Norte 9 Nordeste 1.6 -- -- 96
2017-11-05 16:00:00 10 0 Calma 17 Noroeste 0.8 -- -- 93
2017-11-05 15:00:00 10.3 3 Este 7 Este 0.2 -- -- 94
2017-11-05 14:00:00 10 3 Noroeste 16 Oeste 0.6 -- -- 92
2017-11-05 13:00:00 10.4 2 Oeste 10 Noroeste 0 -- -- 94
2017-11-05 12:00:00 10.1 2 Nordeste 6 Oeste 0.2 -- -- 95
2017-11-05 11:00:00 9.3 0 Calma 4 Norte 0 -- -- 100
2017-11-05 10:00:00 8.4 0 Calma 6 Nordeste 1.2 -- -- 99
2017-11-05 09:00:00 8.2 3 Nordeste 6 Norte 0 -- -- 99
2017-11-05 08:00:00 8 3 Norte 6 Norte 0.4 -- -- 99
2017-11-05 07:00:00 8 4 Norte 11 Noroeste 0.6 -- -- 100
2017-11-05 06:00:00 7.3 2 Nordeste 11 Este 0.2 -- -- 98
2017-11-05 05:00:00 8.3 3 Oeste 9 Norte 1.8 -- -- 99
2017-11-05 04:00:00 8.7 2 Oeste 7 Nordeste 0.8 -- -- 99
2017-11-05 03:00:00 9 2 Noroeste 7 Norte 0.4 -- -- 99
2017-11-05 02:00:00 9.7 3 Noroeste 18 Noroeste 0.4 -- -- 94
2017-11-05 01:00:00 10.2 4 Oeste 13 Oeste 1.6 -- -- 97
2017-11-05 00:00:00 10.7 5 Noroeste 16 Oeste 2.8 -- -- 97
2017-11-04 23:00:00 11 2 Norte 9 Norte 2.4 -- -- 99
2017-11-04 22:00:00 11.3 4 Oeste 18 Oeste 3.6 -- -- 100
2017-11-04 21:00:00 11.5 0 Calma 12 Noroeste 1.4 -- -- 99
2017-11-04 20:00:00 11.4 2 Norte 6 Norte 3.2 -- -- 100
2017-11-04 19:00:00 11.7 0 Calma 6 Norte 0.2 -- -- 99
2017-11-04 18:00:00 12 0 Calma 4 Noroeste 0.8 -- -- 98
2017-11-04 17:00:00 12.3 0 Calma 5 Oeste 1.8 -- -- 97
2017-11-04 16:00:00 12.7 3 Oeste 20 Noroeste 2.4 -- -- 95
2017-11-04 15:00:00 14.6 5 Oeste 18 Oeste 0 -- -- 90
2017-11-04 14:00:00 14.7 0 Calma 8 Sudoeste 0.2 -- -- 93
2017-11-04 13:00:00 14.8 3 Oeste 5 Oeste 0 -- -- 86
2017-11-04 12:00:00 13.7 0 Calma 3 Oeste 0 -- -- 90
2017-11-04 11:00:00 13.6 3 Oeste 8 Sudoeste 0 -- -- 90
2017-11-04 10:00:00 12.6 0 Calma 4 Noroeste 0.2 -- -- 97
2017-11-04 09:00:00 10.9 0 Calma 3 Norte 0.2 -- -- 100
2017-11-04 08:00:00 10.3 0 Calma 3 Norte 0.4 -- -- 99
2017-11-04 07:00:00 10.2 0 Calma 3 Norte 0 -- -- 98
2017-11-04 06:00:00 9.8 0 Calma 3 Nordeste 0 -- -- 99
2017-11-04 05:00:00 9.2 0 Calma 5 Noroeste 0 -- -- 98
2017-11-04 04:00:00 9.6 2 Norte 5 Noroeste 0 -- -- 96
2017-11-04 03:00:00 9.6 0 Calma 4 Nordeste 0 -- -- 97
2017-11-04 02:00:00 9.8 0 Calma 4 Oeste 0 -- -- 96
2017-11-04 01:00:00 9.6 0 Calma 5 Sudoeste 0 -- -- 98
2017-11-04 00:00:00 9.4 0 Calma 4 Norte 0 -- -- 97
2017-11-03 23:00:00 9.9 0 Calma 6 Norte 0 -- -- 96
2017-11-03 22:00:00 10.7 0 Calma 6 Sudoeste 0 -- -- 93
2017-11-03 21:00:00 12.4 0 Calma 4 Sudeste 0 -- -- 90
2017-11-03 20:00:00 13.2 3 Sudeste 4 Sudeste 0 -- -- 87
2017-11-03 19:00:00 14.1 0 Calma 5 Sudeste 0 -- -- 82
2017-11-03 18:00:00 15.6 0 Calma 13 Este 0 -- -- 74
2017-11-03 17:00:00 17.6 8 Sudeste 28 Sur 0 -- -- 57
2017-11-03 16:00:00 20 12 Sur 27 Sur 0 -- -- 51
2017-11-03 15:00:00 19.2 12 Sudeste 39 Sur 0 -- -- 53
2017-11-03 14:00:00 20.8 10 Sudeste 27 Sudeste 0 -- -- 51
2017-11-03 13:00:00 18.6 9 Sur 34 Sur 0 -- -- 57
2017-11-03 12:00:00 18.6 13 Sur 26 Este 0 -- -- 60
2017-11-03 11:00:00 15.3 8 Este 16 Este 0 -- -- 72
2017-11-03 10:00:00 14.4 3 Norte 8 Oeste 0 -- -- 93
2017-11-03 09:00:00 12.5 3 Noroeste 14 Noroeste 0 -- -- 98
2017-11-03 08:00:00 12.4 3 Oeste 7 Nordeste 0.2 -- -- 98
2017-11-03 07:00:00 12.6 2 Este 6 Este 1.2 -- -- 98
2017-11-03 06:00:00 12.8 0 Calma 3 Este 0.8 -- -- 96
2017-11-03 05:00:00 13.4 0 Calma 5 Noroeste 0.2 -- -- 91
2017-11-03 04:00:00 15.8 0 Calma 21 Este 0 -- -- 73
2017-11-03 03:00:00 17.5 7 Este 30 Este 0 -- -- 62
2017-11-03 02:00:00 17.4 7 Sudeste 23 Sudeste 0 -- -- 63
2017-11-03 01:00:00 17.4 9 Este 22 Sudeste 0 -- -- 61
2017-11-03 00:00:00 17.6 10 Este 22 Nordeste 0 -- -- 61
2017-11-02 23:00:00 17.2 7 Este 23 Sudeste 0 -- -- 62
2017-11-02 22:00:00 16.6 8 Este 21 Nordeste 0 -- -- 66
2017-11-02 21:00:00 15.7 4 Norte 15 Este 0 -- -- 76
2017-11-02 20:00:00 16.9 7 Sudeste 23 Este 0 -- -- 71
2017-11-02 19:00:00 17.3 7 Este 27 Sur 0 -- -- 72
2017-11-02 18:00:00 18.8 7 Sudeste 25 Sur 0 -- -- 59
2017-11-02 17:00:00 19.6 7 Sudeste 27 Sur 0 -- -- 54
2017-11-02 16:00:00 20.7 9 Sudeste 28 Este 0 -- -- 52
2017-11-02 15:00:00 20 9 Este 30 Sur 0 -- -- 54
2017-11-02 14:00:00 20.3 8 Sudeste 29 Sudeste 0 -- -- 52
2017-11-02 13:00:00 20.2 10 Sur 23 Sur 0 -- -- 54
2017-11-02 12:00:00 18.9 6 Sudeste 16 Sudeste 0 -- -- 58
2017-11-02 11:00:00 18.5 5 Sudeste 19 Sur 0 -- -- 61
2017-11-02 10:00:00 18.7 5 Sudeste 22 Este 0 -- -- 60
2017-11-02 09:00:00 17.6 8 Este 17 Sudeste 0 -- -- 59
2017-11-02 08:00:00 16.6 0 Calma 12 Este 0 -- -- 62
2017-11-02 07:00:00 17.4 6 Este 12 Este 0 -- -- 57
2017-11-02 06:00:00 17.5 3 Este 14 Este 0 -- -- 59
2017-11-02 05:00:00 17.3 5 Este 15 Sudeste 0 -- -- 57
2017-11-02 04:00:00 18.1 5 Este 17 Nordeste 0 -- -- 53
2017-11-02 03:00:00 17.7 7 Este 16 Sudeste 0 -- -- 56
2017-11-02 02:00:00 15.6 8 Este 20 Este 0 -- -- 62
2017-11-02 01:00:00 13.6 0 Calma 9 Norte 0 -- -- 75
2017-11-02 00:00:00 13.6 4 Norte 10 Nordeste 0 -- -- 72
2017-11-01 23:00:00 13.5 0 Calma 7 Norte 0 -- -- 75
2017-11-01 22:00:00 13.3 3 Oeste 8 Norte 0 -- -- 75
2017-11-01 21:00:00 14.2 2 Oeste 6 Norte 0 -- -- 70
2017-11-01 20:00:00 14.8 3 Noroeste 9 Este 0 -- -- 68
2017-11-01 19:00:00 15.1 3 Nordeste 8 Norte 0 -- -- 66
2017-11-01 18:00:00 18.6 6 Este 15 Sudeste 0 -- -- 52
2017-11-01 17:00:00 20.7 9 Sudeste 33 Sudeste 0 -- -- 46
2017-11-01 16:00:00 23.6 19 Sur 37 Sudeste 0 -- -- 42
2017-11-01 15:00:00 24 15 Sur 36 Sur 0 -- -- 40
2017-11-01 14:00:00 21.1 6 Sudeste 26 Nordeste 0 -- -- 44
2017-11-01 13:00:00 21.8 9 Sudeste 33 Este 0 -- -- 44
2017-11-01 12:00:00 21.5 11 Sudeste 31 Este 0 -- -- 42
2017-11-01 11:00:00 19.1 10 Sudeste 30 Este 0 -- -- 47
2017-11-01 10:00:00 18 12 Este 28 Este 0 -- -- 45
2017-11-01 09:00:00 17.1 13 Sudeste 36 Este 0 -- -- 48
2017-11-01 08:00:00 16.6 14 Sudeste 35 Sudeste 0 -- -- 48
2017-11-01 07:00:00 16.3 12 Sudeste 31 Sudeste 0 -- -- 46
2017-11-01 06:00:00 16.1 14 Sudeste 36 Este 0 -- -- 47
2017-11-01 05:00:00 15.8 16 Sudeste 36 Este 0 -- -- 49
2017-11-01 04:00:00 11.1 9 Este 31 Sudeste 0 -- -- 70
2017-11-01 03:00:00 8.8 5 Este 16 Sudeste 0 -- -- 84
2017-11-01 02:00:00 7.7 4 Oeste 9 Noroeste 0 -- -- 95
2017-11-01 01:00:00 6.6 0 Calma 5 Oeste 0 -- -- 97
2017-11-01 00:00:00 6.8 0 Calma 5 Norte 0 -- -- 99
2017-10-31 23:00:00 6.7 0 Calma 5 Oeste 0 -- -- 100
2017-10-31 22:00:00 7.1 0 Calma 5 Nordeste 0 -- -- 98
2017-10-31 21:00:00 7.4 3 Nordeste 5 Norte 0 -- -- 98
2017-10-31 20:00:00 8 2 Noroeste 4 Noroeste 0 -- -- 97
2017-10-31 19:00:00 8.6 0 Calma 4 Sudoeste 0 -- -- 93
2017-10-31 18:00:00 10.8 0 Calma 4 Sudoeste 0 -- -- 85
2017-10-31 17:00:00 14.2 2 Sur 13 Nordeste 0 -- -- 68
2017-10-31 16:00:00 16 5 Sudeste 15 Sur 0 -- -- 65
2017-10-31 15:00:00 16.7 9 Sudoeste 17 Sudoeste 0 -- -- 64
2017-10-31 14:00:00 16.1 8 Sudoeste 14 Sudoeste 0 -- -- 63
2017-10-31 13:00:00 14.4 8 Sudoeste 15 Sudoeste 0 -- -- 68
2017-10-31 12:00:00 13 5 Sudoeste 13 Sudoeste 0 -- -- 75
2017-10-31 11:00:00 11.3 4 Sur 8 Sur 0 -- -- 79
2017-10-31 10:00:00 9.2 3 Este 5 Sudeste 0 -- -- 91
2017-10-31 09:00:00 5.7 0 Calma 4 Nordeste 0 -- -- 100
2017-10-31 08:00:00 6.5 0 Calma 2 Nordeste 0 -- -- 100
2017-10-31 07:00:00 6 0 Calma 3 Nordeste 0 -- -- 100
2017-10-31 06:00:00 7.1 0 Calma 2 Norte 0 -- -- 100
2017-10-31 05:00:00 7.6 0 Calma 3 Norte 0 -- -- 100
2017-10-31 04:00:00 7.5 0 Calma 2 Norte 0 -- -- 100
2017-10-31 03:00:00 6 0 Calma 4 Nordeste 0 -- -- 100
2017-10-31 02:00:00 6.6 2 Nordeste 5 Nordeste 0 -- -- 100
2017-10-31 01:00:00 7.3 2 Norte 4 Norte 0 -- -- 98
2017-10-31 00:00:00 7.8 3 Nordeste 9 Norte 0 -- -- 98
2017-10-30 23:00:00 8.7 7 Norte 11 Norte 0 -- -- 95
2017-10-30 22:00:00 9.4 3 Norte 14 Noroeste 0 -- -- 94
2017-10-30 21:00:00 10.3 4 Norte 9 Nordeste 0 -- -- 93
2017-10-30 20:00:00 10.6 2 Sudoeste 16 Noroeste 0 -- -- 93
2017-10-30 19:00:00 11.2 3 Oeste 12 Oeste 0 -- -- 94
2017-10-30 18:00:00 11.9 3 Noroeste 22 Noroeste 0.2 -- -- 94
2017-10-30 17:00:00 12.7 6 Noroeste 15 Noroeste 0 -- -- 95
2017-10-30 16:00:00 13.1 2 Este 18 Oeste 0 -- -- 98
2017-10-30 15:00:00 13.4 6 Oeste 20 Noroeste 0.8 -- -- 97
2017-10-30 14:00:00 13.7 8 Sudoeste 23 Oeste 0 -- -- 99
2017-10-30 13:00:00 13.4 9 Sudoeste 20 Oeste 0.4 -- -- 99
2017-10-30 12:00:00 13.4 8 Sudoeste 18 Oeste 0.2 -- -- 100
2017-10-30 11:00:00 12.8 5 Sudoeste 15 Oeste 0 -- -- 100
2017-10-30 10:00:00 12.1 7 Sudoeste 14 Oeste 0.6 -- -- 100
2017-10-30 09:00:00 11.7 3 Sudoeste 5 Oeste 0.6 -- -- 100
2017-10-30 08:00:00 11.6 0 Calma 3 Oeste 0.2 -- -- 100
2017-10-30 07:00:00 11.6 0 Calma 3 Oeste 0.6 -- -- 99
2017-10-30 06:00:00 11.6 0 Calma 4 Noroeste 0 -- -- 98
2017-10-30 05:00:00 11.5 0 Calma 4 Noroeste 0 -- -- 99
2017-10-30 04:00:00 11.6 0 Calma 4 Oeste 0 -- -- 100
2017-10-30 03:00:00 11.8 0 Calma 7 Oeste 0.2 -- -- 99
2017-10-30 02:00:00 11.7 4 Norte 8 Norte 0 -- -- 97
2017-10-30 01:00:00 11.8 0 Calma 8 Oeste -- -- -- 98
2017-10-30 00:00:00 12.5 2 Oeste 7 Oeste 0 -- -- 96
2017-10-29 23:00:00 12.6 0 Calma 5 Noroeste 0 -- -- 92
2017-10-29 22:00:00 12.8 0 Calma 5 Noroeste 0 -- -- 90
2017-10-29 21:00:00 13 0 Calma 5 Oeste 0 -- -- 87
2017-10-29 20:00:00 13.5 3 Oeste 9 Noroeste 0 -- -- 85
2017-10-29 19:00:00 13.8 5 Oeste 10 Noroeste 0 -- -- 83
2017-10-29 18:00:00 14.6 5 Oeste 14 Oeste 0 -- -- 78
2017-10-29 17:00:00 16 4 Sudoeste 16 Noroeste 0 -- -- 70
2017-10-29 16:00:00 18.5 6 Oeste 21 Oeste 0 -- -- 61
2017-10-29 15:00:00 17.9 6 Sudoeste 23 Sur 0 -- -- 60
2017-10-29 14:00:00 18.9 8 Oeste 18 Oeste 0 -- -- 57
2017-10-29 13:00:00 19 12 Sudoeste 21 Sudoeste 0 -- -- 59
2017-10-29 12:00:00 17.3 7 Sudoeste 24 Sudoeste 0 -- -- 67
2017-10-29 11:00:00 15.8 6 Sudoeste 10 Oeste 0 -- -- 70
2017-10-29 10:00:00 12.1 0 Calma 5 Norte 0 -- -- 83
2017-10-29 09:00:00 11.3 2 Norte 5 Norte 0 -- -- 88
2017-10-29 08:00:00 10.9 0 Calma 3 Norte 0 -- -- 94
2017-10-29 07:00:00 10.7 0 Calma 4 Nordeste 0 -- -- 93
2017-10-29 06:00:00 11.2 0 Calma 2 Norte 0 -- -- 96
2017-10-29 05:00:00 11.3 0 Calma 0 Calma 0 -- -- 97
2017-10-29 04:00:00 11.2 0 Calma 3 Norte 0 -- -- 99
2017-10-29 03:00:00 10.1 0 Calma 4 Nordeste 0 -- -- 100
2017-10-29 02:00:00 11.3 3 Nordeste 4 Nordeste 0 -- -- 97
2017-10-29 01:00:00 11.9 2 Norte 3 Norte 0 -- -- 97
2017-10-29 00:00:00 12.6 2 Nordeste 4 Nordeste 0 -- -- 96
2017-10-28 23:00:00 13.5 0 Calma 3 Noroeste 0 -- -- 94
2017-10-28 22:00:00 14.6 0 Calma 2 Noroeste 0 -- -- 91
2017-10-28 21:00:00 14.8 0 Calma 4 Noroeste 0 -- -- 91
2017-10-28 20:00:00 14.5 2 Norte 5 Nordeste 0 -- -- 92
2017-10-28 19:00:00 16.2 4 Oeste 15 Oeste 0 -- -- 83
2017-10-28 18:00:00 18.5 6 Oeste 18 Sudoeste 0 -- -- 73
2017-10-28 17:00:00 20.4 11 Sudoeste 25 Sudoeste 0 -- -- 67
2017-10-28 16:00:00 20 6 Sudoeste 19 Noroeste 0 -- -- 68
2017-10-28 15:00:00 20.4 8 Oeste 20 Oeste 0 -- -- 64
2017-10-28 14:00:00 19.9 7 Noroeste 23 Sur 0 -- -- 65
2017-10-28 13:00:00 19.4 8 Oeste 21 Sudoeste 0 -- -- 66
2017-10-28 12:00:00 18.3 6 Sudoeste 12 Sur 0 -- -- 74
2017-10-28 11:00:00 14.7 0 Calma 3 Este 0 -- -- 96
2017-10-28 10:00:00 13.7 0 Calma 2 Nordeste 0 -- -- 96
2017-10-28 09:00:00 13.3 0 Calma 3 Norte 0 -- -- 96
2017-10-28 08:00:00 14 0 Calma 3 Nordeste 0 -- -- 98
2017-10-28 07:00:00 14.3 0 Calma 3 Norte 0 -- -- 97
2017-10-28 06:00:00 14.4 0 Calma 2 Nordeste 0 -- -- 97
2017-10-28 05:00:00 14.6 0 Calma 3 Norte 0 -- -- 97
2017-10-28 04:00:00 14.6 0 Calma 3 Nordeste 0 -- -- 96
2017-10-28 03:00:00 14.9 0 Calma -- -- 0 -- -- 95
2017-10-28 02:00:00 15.1 0 Calma -- -- 0 -- -- 94
2017-10-28 01:00:00 15.3 0 Calma -- -- 0 -- -- 93
2017-10-28 00:00:00 15.6 0 Calma 0 Calma 0 -- -- 92
2017-10-27 23:00:00 15.7 0 Calma 3 Norte 0 -- -- 93
2017-10-27 22:00:00 15.9 0 Calma 3 Norte 0 -- -- 92
2017-10-27 21:00:00 15.9 0 Calma 4 Este 0 -- -- 92
2017-10-27 20:00:00 15.5 0 Calma 4 Este 0 -- -- 93
2017-10-27 19:00:00 17.2 2 Norte 14 Nordeste 0 -- -- 85
2017-10-27 18:00:00 20.3 6 Sur 15 Nordeste 0 -- -- 75
2017-10-27 17:00:00 22.8 6 Sudoeste 23 Sudoeste 0 -- -- 66
2017-10-27 16:00:00 23.9 10 Sudoeste 22 Oeste 0 -- -- 58
2017-10-27 15:00:00 23.4 9 Sur 17 Sudoeste 0 -- -- 56
2017-10-27 14:00:00 21.7 6 Sur 13 Oeste 0 -- -- 58
2017-10-27 13:00:00 19.6 6 Sudoeste 13 Oeste 0 -- -- 65
2017-10-27 12:00:00 17.3 4 Sudoeste 7 Sudoeste 0 -- -- 73
2017-10-27 11:00:00 15.1 0 Calma 4 Sur 0 -- -- 80
2017-10-27 10:00:00 11.4 0 Calma 4 Sudoeste 0 -- -- 94
2017-10-27 09:00:00 9.8 0 Calma 4 Sudeste 0 -- -- 95
2017-10-27 08:00:00 9.7 0 Calma 4 Sudoeste 0 -- -- 94
2017-10-27 07:00:00 10.3 2 Sur 6 Este 0 -- -- 95
2017-10-27 06:00:00 10.3 0 Calma 5 Sur 0 -- -- 94
2017-10-27 05:00:00 10.9 0 Calma 6 Sudoeste 0 -- -- 94
2017-10-27 04:00:00 10.5 0 Calma 5 Noroeste 0 -- -- 97
2017-10-27 03:00:00 10.6 2 Oeste 4 Oeste 0 -- -- 97
2017-10-27 02:00:00 10.9 0 Calma 3 Norte 0 -- -- 96
2017-10-27 01:00:00 11.3 0 Calma 4 Norte 0 -- -- 95
2017-10-27 00:00:00 11.9 0 Calma 3 Norte 0 -- -- 93
2017-10-26 23:00:00 12.5 3 Norte 4 Norte 0 -- -- 91
2017-10-26 22:00:00 12.8 0 Calma 4 Oeste 0 -- -- 90
2017-10-26 21:00:00 14 0 Calma 4 Norte 0 -- -- 86
2017-10-26 20:00:00 15 3 Norte 5 Oeste 0 -- -- 82
2017-10-26 19:00:00 18.1 0 Calma 15 Oeste 0 -- -- 70
2017-10-26 18:00:00 22 8 Oeste 17 Oeste 0 -- -- 56
2017-10-26 17:00:00 23.9 8 Oeste 22 Oeste 0 -- -- 53
2017-10-26 16:00:00 23.6 7 Oeste 23 Oeste 0 -- -- 49
2017-10-26 15:00:00 24.7 10 Sudoeste 23 Sudoeste 0 -- -- 46
2017-10-26 14:00:00 23.8 11 Sudoeste 19 Oeste 0 -- -- 48
2017-10-26 13:00:00 21.7 5 Sur 8 Sudoeste 0 -- -- 52
2017-10-26 12:00:00 19.4 3 Sur 8 Sudoeste 0 -- -- 59
2017-10-26 11:00:00 16.2 2 Sur 5 Norte 0 -- -- 65
2017-10-26 10:00:00 11.6 0 Calma 4 Noroeste 0 -- -- 76
2017-10-26 09:00:00 11.1 0 Calma 8 Sudoeste 0 -- -- 74
2017-10-26 08:00:00 13.8 0 Calma 8 Sur 0 -- -- 62
2017-10-26 07:00:00 15.4 3 Este 8 Nordeste 0 -- -- 53
2017-10-26 06:00:00 15.7 3 Norte 10 Sudoeste 0 -- -- 50
2017-10-26 05:00:00 18.3 3 Oeste 23 Sudeste 0 -- -- 44
2017-10-26 04:00:00 22.5 14 Sudeste 35 Sudeste 0 -- -- 33
2017-10-26 03:00:00 17.6 8 Sudeste 18 Sudeste 0 -- -- 46
2017-10-26 02:00:00 13.8 4 Nordeste 9 Nordeste 0 -- -- 60
2017-10-26 01:00:00 12.7 0 Calma 7 Sudoeste 0 -- -- 68
2017-10-26 00:00:00 12.5 0 Calma 6 Sudoeste 0 -- -- 74